Time;durP1;ratioP1;P1;durP2;ratioP2;P2;SDS_P1;SDS_P2;PMS_P1;PMS_P2;Temp;Humidity;BMP_temperature;BMP_pressure;BME280_temperature;BME280_humidity;BME280_pressure;Samples;Min_cycle;Max_cycle;Signal;HPM_P1;HPM_P2
2022/07/18 00:00:09;;;;;;;;;;;;;;;;;;351425;28;841;-63
2022/07/18 00:00:19;;;;;;;;;;;;;;;;;;351481;28;845;-63
2022/07/18 00:00:29;;;;;;;;;;;;;;;;;;351340;28;1000;-63
2022/07/18 00:00:39;;;;;;;;;;;;;;;;;;351332;28;991;-62
2022/07/18 00:00:49;;;;;;;;;;;;;;;;;;351357;28;789;-62
2022/07/18 00:01:00;;;;;;;;;;;;;;;;;;351352;28;986;-62
2022/07/18 00:01:10;;;;;;;;;;;;;;;;;;351421;28;821;-63
2022/07/18 00:01:20;;;;;;;;;;;;;;;;;;351385;28;834;-62
2022/07/18 00:01:31;;;;;;;;;;;;;;;;;;351315;28;1151;-62
2022/07/18 00:01:41;;;;;;;;;;;;;;;;;;351446;28;770;-62
2022/07/18 00:01:51;;;;;;;;;;;;;;;;;;351395;28;963;-63
2022/07/18 00:02:02;;;;;;;;;;;;;;;;;;351390;28;940;-63
2022/07/18 00:02:12;;;;;;;;;;;;;;;;;;351400;28;901;-62
2022/07/18 00:02:23;;;;;;;;;;;;;;;;;;351372;28;1003;-63
2022/07/18 00:02:33;;;;;;;;;;;;;;;;;;351326;28;1050;-62
2022/07/18 00:02:43;;;;;;;;;;;;;;;;;;351379;28;778;-63
2022/07/18 00:02:54;;;;;;;;;;;;;;;;;;351412;28;920;-63
2022/07/18 00:03:05;;;;;;;;;;;;;;;;;;351404;28;872;-63
2022/07/18 00:03:15;;;;;;;;;;;;;;;;;;351341;28;920;-63
2022/07/18 00:03:25;;;;;;;;;;;;;;;;;;351375;28;1671;-63
2022/07/18 00:03:36;;;;;;;;;;;;;;;;;;351384;28;947;-62
2022/07/18 00:03:46;;;;;;;;;;;;;;;;;;351363;28;955;-62
2022/07/18 00:03:56;;;;;;;;;;;;;;;;;;351340;27;975;-62
2022/07/18 00:04:06;;;;;;;;;;;;;;;;;;351404;28;877;-63
2022/07/18 00:04:17;;;;;;;;;;;;;;;;;;351401;28;806;-62
2022/07/18 00:04:27;;;;;;;;;;;;;;;;;;351409;28;813;-63
2022/07/18 00:04:37;;;;;;;;;;;;;;;;;;351412;28;983;-63
2022/07/18 00:04:48;;;;;;;;;;;;;;;;;;351362;28;765;-63
2022/07/18 00:04:58;;;;;;;;;;;;;;;;;;351363;28;924;-62
2022/07/18 00:05:08;;;;;;;;;;;;;;;;;;351362;28;904;-62
2022/07/18 00:05:18;;;;;;;;;;;;;;;;;;351391;28;884;-62
2022/07/18 00:05:28;;;;;;;;;;;;;;;;;;351393;28;905;-62
2022/07/18 00:05:39;;;;;;;;;;;;;;;;;;351414;28;904;-62
2022/07/18 00:05:49;;;;;;;;;;;;;;;;;;351375;28;928;-62
2022/07/18 00:05:59;;;;;;;;;;;;;;;;;;351340;28;975;-63
2022/07/18 00:06:09;;;;;;;;;;;;;;;;;;351383;28;908;-62
2022/07/18 00:06:20;;;;;;;;;;;;;;;;;;351378;28;912;-63
2022/07/18 00:06:30;;;;;;;;;;;;;;;;;;351401;28;983;-62
2022/07/18 00:06:40;;;;;;;;;;;;;;;;;;351385;28;793;-63
2022/07/18 00:06:50;;;;;;;;;;;;;;;;;;351352;28;786;-62
2022/07/18 00:07:01;;;;;;;;;;;;;;;;;;351394;28;900;-63
2022/07/18 00:07:11;;;;;;;;;;;;;;;;;;351417;28;774;-62
2022/07/18 00:07:21;;;;;;;;;;;;;;;;;;351383;28;866;-63
2022/07/18 00:07:32;;;;;;;;;;;;;;;;;;351362;28;1173;-63
2022/07/18 00:07:42;;;;;;;;;;;;;;;;;;350481;28;2057;-63
2022/07/18 00:07:52;;;;;;;;;;;;;;;;;;352625;28;880;-63
2022/07/18 00:08:03;;;;;;;;;;;;;;;;;;351202;28;1330;-63
2022/07/18 00:08:13;;;;;;;;;;;;;;;;;;350851;28;1288;-63
2022/07/18 00:08:26;;;;;;;;;;;;;;;;;;349997;28;1207;-62
2022/07/18 00:08:36;;;;;;;;;;;;;;;;;;349990;28;920;-62
2022/07/18 00:08:46;;;;;;;;;;;;;;;;;;349995;28;944;-62
2022/07/18 00:08:56;;;;;;;;;;;;;;;;;;349974;28;933;-62
2022/07/18 00:09:07;;;;;;;;;;;;;;;;;;349846;28;762;-63
2022/07/18 00:09:17;;;;;;;;;;;;;;;;;;350012;28;1035;-63
2022/07/18 00:09:28;;;;;;;;;;;;;;;;;;349995;28;979;-62
2022/07/18 00:09:41;;;;;;;;;;;;;;;;;;349957;28;929;-63
2022/07/18 00:09:51;;;;;;;;;;;;;;;;;;349924;28;868;-62
2022/07/18 00:10:02;;;;;;;;;;;;;;;;;;349972;28;924;-63
2022/07/18 00:10:12;;;;;;;;;;;;;;;;;;349975;28;1015;-63
2022/07/18 00:10:22;;;;;;;;;;;;;;;;;;350003;28;1008;-62
2022/07/18 00:10:32;;;;;;;;;;;;;;;;;;349940;28;1145;-62
2022/07/18 00:10:43;;;;;;;;;;;;;;;;;;349961;28;956;-62
2022/07/18 00:10:53;;;;;;;;;;;;;;;;;;349923;28;859;-63
2022/07/18 00:11:03;;;;;;;;;;;;;;;;;;349944;28;790;-62
2022/07/18 00:11:13;;;;;;;;;;;;;;;;;;349976;28;813;-62
2022/07/18 00:11:23;;;;;;;;;;;;;;;;;;349984;28;983;-62
2022/07/18 00:11:34;;;;;;;;;;;;;;;;;;349947;28;1281;-63
2022/07/18 00:11:44;;;;;;;;;;;;;;;;;;349934;28;1003;-63
2022/07/18 00:11:54;;;;;;;;;;;;;;;;;;349978;28;944;-63
2022/07/18 00:12:05;;;;;;;;;;;;;;;;;;349997;28;916;-62
2022/07/18 00:12:16;;;;;;;;;;;;;;;;;;349969;28;909;-63
2022/07/18 00:12:26;;;;;;;;;;;;;;;;;;349997;28;940;-62
2022/07/18 00:12:36;;;;;;;;;;;;;;;;;;349942;28;960;-62
2022/07/18 00:12:46;;;;;;;;;;;;;;;;;;349904;28;1957;-63
2022/07/18 00:12:56;;;;;;;;;;;;;;;;;;349999;28;774;-62
2022/07/18 00:13:07;;;;;;;;;;;;;;;;;;349880;28;968;-63
2022/07/18 00:13:17;;;;;;;;;;;;;;;;;;349994;28;916;-63
2022/07/18 00:13:27;;;;;;;;;;;;;;;;;;349991;28;822;-62
2022/07/18 00:13:37;;;;;;;;;;;;;;;;;;349918;28;983;-62
2022/07/18 00:13:47;;;;;;;;;;;;;;;;;;349953;28;1114;-62
2022/07/18 00:13:58;;;;;;;;;;;;;;;;;;349965;28;925;-63
2022/07/18 00:14:08;;;;;;;;;;;;;;;;;;349929;28;877;-62
2022/07/18 00:14:19;;;;;;;;;;;;;;;;;;349993;28;951;-63
2022/07/18 00:14:29;;;;;;;;;;;;;;;;;;349958;28;916;-63
2022/07/18 00:14:40;;;;;;;;;;;;;;;;;;349978;28;979;-63
2022/07/18 00:14:50;;;;;;;;;;;;;;;;;;350025;28;856;-62
2022/07/18 00:15:00;;;;;;;;;;;;;;;;;;349950;28;952;-62
2022/07/18 00:15:10;;;;;;;;;;;;;;;;;;349907;28;844;-62
2022/07/18 00:15:21;;;;;;;;;;;;;;;;;;349965;28;924;-62
2022/07/18 00:15:31;;;;;;;;;;;;;;;;;;349947;28;944;-62
2022/07/18 00:15:41;;;;;;;;;;;;;;;;;;349924;28;1020;-62
2022/07/18 00:15:51;;;;;;;;;;;;;;;;;;349995;28;980;-63
2022/07/18 00:16:02;;;;;;;;;;;;;;;;;;350015;28;778;-63
2022/07/18 00:16:12;;;;;;;;;;;;;;;;;;349967;28;952;-63
2022/07/18 00:16:23;;;;;;;;;;;;;;;;;;349988;28;936;-63
2022/07/18 00:16:33;;;;;;;;;;;;;;;;;;349978;28;932;-63
2022/07/18 00:16:43;;;;;;;;;;;;;;;;;;349919;28;1168;-62
2022/07/18 00:16:53;;;;;;;;;;;;;;;;;;350456;28;1442;-62
2022/07/18 00:17:04;;;;;;;;;;;;;;;;;;351302;28;1127;-63
2022/07/18 00:17:14;;;;;;;;;;;;;;;;;;351334;27;845;-62
2022/07/18 00:17:24;;;;;;;;;;;;;;;;;;351375;28;896;-63
2022/07/18 00:17:35;;;;;;;;;;;;;;;;;;351407;28;1011;-62
2022/07/18 00:17:46;;;;;;;;;;;;;;;;;;351406;28;951;-63
2022/07/18 00:17:56;;;;;;;;;;;;;;;;;;351380;28;873;-63
2022/07/18 00:18:06;;;;;;;;;;;;;;;;;;351347;28;940;-62
2022/07/18 00:18:16;;;;;;;;;;;;;;;;;;351374;28;758;-62
2022/07/18 00:18:27;;;;;;;;;;;;;;;;;;351399;28;913;-62
2022/07/18 00:18:37;;;;;;;;;;;;;;;;;;351380;28;976;-62
2022/07/18 00:18:47;;;;;;;;;;;;;;;;;;351380;28;1010;-63
2022/07/18 00:18:58;;;;;;;;;;;;;;;;;;351330;28;897;-62
2022/07/18 00:19:08;;;;;;;;;;;;;;;;;;351427;28;916;-63
2022/07/18 00:19:18;;;;;;;;;;;;;;;;;;351220;28;1266;-65
2022/07/18 00:19:29;;;;;;;;;;;;;;;;;;351384;28;1006;-62
2022/07/18 00:19:39;;;;;;;;;;;;;;;;;;350365;28;1341;-62
2022/07/18 00:19:50;;;;;;;;;;;;;;;;;;349995;28;982;-62
2022/07/18 00:20:00;;;;;;;;;;;;;;;;;;349996;28;809;-62
2022/07/18 00:20:11;;;;;;;;;;;;;;;;;;350037;28;896;-62
2022/07/18 00:20:21;;;;;;;;;;;;;;;;;;349994;28;904;-63
2022/07/18 00:20:31;;;;;;;;;;;;;;;;;;350033;28;925;-62
2022/07/18 00:20:42;;;;;;;;;;;;;;;;;;349929;28;867;-63
2022/07/18 00:20:52;;;;;;;;;;;;;;;;;;349991;28;991;-62
2022/07/18 00:21:03;;;;;;;;;;;;;;;;;;349956;28;943;-62
2022/07/18 00:21:13;;;;;;;;;;;;;;;;;;349972;28;932;-63
2022/07/18 00:21:23;;;;;;;;;;;;;;;;;;350012;28;916;-62
2022/07/18 00:21:34;;;;;;;;;;;;;;;;;;349849;28;932;-63
2022/07/18 00:21:44;;;;;;;;;;;;;;;;;;350012;28;791;-63
2022/07/18 00:21:54;;;;;;;;;;;;;;;;;;350021;28;880;-63
2022/07/18 00:22:05;;;;;;;;;;;;;;;;;;349968;28;960;-63
2022/07/18 00:22:15;;;;;;;;;;;;;;;;;;349951;28;1051;-62
2022/07/18 00:22:25;;;;;;;;;;;;;;;;;;349950;28;881;-63
2022/07/18 00:22:35;;;;;;;;;;;;;;;;;;350005;28;896;-62
2022/07/18 00:22:46;;;;;;;;;;;;;;;;;;349964;28;999;-62
2022/07/18 00:22:56;;;;;;;;;;;;;;;;;;350012;28;790;-63
2022/07/18 00:23:06;;;;;;;;;;;;;;;;;;349955;28;971;-63
2022/07/18 00:23:16;;;;;;;;;;;;;;;;;;349937;28;850;-63
2022/07/18 00:23:26;;;;;;;;;;;;;;;;;;349974;28;786;-62
2022/07/18 00:23:37;;;;;;;;;;;;;;;;;;349858;28;1028;-62
2022/07/18 00:23:47;;;;;;;;;;;;;;;;;;349930;28;802;-62
2022/07/18 00:23:57;;;;;;;;;;;;;;;;;;349990;28;932;-63
2022/07/18 00:24:07;;;;;;;;;;;;;;;;;;349959;28;995;-63
2022/07/18 00:24:18;;;;;;;;;;;;;;;;;;349920;28;774;-63
2022/07/18 00:24:28;;;;;;;;;;;;;;;;;;349973;28;921;-63
2022/07/18 00:24:38;;;;;;;;;;;;;;;;;;349989;28;924;-63
2022/07/18 00:24:48;;;;;;;;;;;;;;;;;;349932;28;920;-63
2022/07/18 00:24:58;;;;;;;;;;;;;;;;;;349928;28;992;-62
2022/07/18 00:25:09;;;;;;;;;;;;;;;;;;349919;28;983;-63
2022/07/18 00:25:19;;;;;;;;;;;;;;;;;;349949;28;1018;-62
2022/07/18 00:25:29;;;;;;;;;;;;;;;;;;349914;28;1169;-62
2022/07/18 00:25:39;;;;;;;;;;;;;;;;;;349944;28;971;-63
2022/07/18 00:25:50;;;;;;;;;;;;;;;;;;349866;28;1067;-63
2022/07/18 00:26:00;;;;;;;;;;;;;;;;;;349964;28;991;-62
2022/07/18 00:26:10;;;;;;;;;;;;;;;;;;349924;28;1256;-62
2022/07/18 00:26:20;;;;;;;;;;;;;;;;;;349958;28;909;-63
2022/07/18 00:26:31;;;;;;;;;;;;;;;;;;349942;28;1179;-63
2022/07/18 00:26:41;;;;;;;;;;;;;;;;;;350015;28;1074;-62
2022/07/18 00:26:51;;;;;;;;;;;;;;;;;;349930;28;801;-62
2022/07/18 00:27:02;;;;;;;;;;;;;;;;;;349973;28;912;-63
2022/07/18 00:27:12;;;;;;;;;;;;;;;;;;349957;28;936;-63
2022/07/18 00:27:22;;;;;;;;;;;;;;;;;;349911;28;1013;-63
2022/07/18 00:27:32;;;;;;;;;;;;;;;;;;349966;28;849;-62
2022/07/18 00:27:43;;;;;;;;;;;;;;;;;;349956;28;862;-63
2022/07/18 00:27:53;;;;;;;;;;;;;;;;;;349988;28;959;-62
2022/07/18 00:28:03;;;;;;;;;;;;;;;;;;349907;28;952;-63
2022/07/18 00:28:13;;;;;;;;;;;;;;;;;;349971;28;861;-63
2022/07/18 00:28:23;;;;;;;;;;;;;;;;;;349975;28;881;-62
2022/07/18 00:28:34;;;;;;;;;;;;;;;;;;349980;28;951;-62
2022/07/18 00:28:44;;;;;;;;;;;;;;;;;;349939;28;945;-62
2022/07/18 00:28:54;;;;;;;;;;;;;;;;;;350015;28;865;-63
2022/07/18 00:29:04;;;;;;;;;;;;;;;;;;349972;28;929;-62
2022/07/18 00:29:15;;;;;;;;;;;;;;;;;;349951;28;826;-63
2022/07/18 00:29:25;;;;;;;;;;;;;;;;;;349965;28;865;-63
2022/07/18 00:29:38;;;;;;;;;;;;;;;;;;349979;28;976;-62
2022/07/18 00:29:49;;;;;;;;;;;;;;;;;;349967;28;1018;-62
2022/07/18 00:29:59;;;;;;;;;;;;;;;;;;349928;28;912;-63
2022/07/18 00:30:10;;;;;;;;;;;;;;;;;;350017;28;952;-63
2022/07/18 00:30:20;;;;;;;;;;;;;;;;;;349874;28;1201;-62
2022/07/18 00:30:30;;;;;;;;;;;;;;;;;;349947;28;1011;-62
2022/07/18 00:30:41;;;;;;;;;;;;;;;;;;349944;28;1000;-62
2022/07/18 00:30:51;;;;;;;;;;;;;;;;;;349992;28;996;-62
2022/07/18 00:31:01;;;;;;;;;;;;;;;;;;349994;28;940;-62
2022/07/18 00:31:11;;;;;;;;;;;;;;;;;;349922;28;1000;-63
2022/07/18 00:31:22;;;;;;;;;;;;;;;;;;349890;28;1110;-63
2022/07/18 00:31:32;;;;;;;;;;;;;;;;;;350006;28;917;-62
2022/07/18 00:31:42;;;;;;;;;;;;;;;;;;349987;28;980;-63
2022/07/18 00:31:52;;;;;;;;;;;;;;;;;;349885;28;975;-63
2022/07/18 00:32:03;;;;;;;;;;;;;;;;;;349909;28;1004;-63
2022/07/18 00:32:14;;;;;;;;;;;;;;;;;;349929;28;905;-63
2022/07/18 00:32:24;;;;;;;;;;;;;;;;;;349971;28;908;-63
2022/07/18 00:32:34;;;;;;;;;;;;;;;;;;349931;28;945;-63
2022/07/18 00:32:44;;;;;;;;;;;;;;;;;;349993;28;984;-63
2022/07/18 00:32:54;;;;;;;;;;;;;;;;;;349896;28;1926;-62
2022/07/18 00:33:05;;;;;;;;;;;;;;;;;;349925;28;950;-62
2022/07/18 00:33:15;;;;;;;;;;;;;;;;;;349932;28;1906;-63
2022/07/18 00:33:25;;;;;;;;;;;;;;;;;;349953;28;919;-63
2022/07/18 00:33:35;;;;;;;;;;;;;;;;;;349974;28;921;-63
2022/07/18 00:33:46;;;;;;;;;;;;;;;;;;349997;28;973;-63
2022/07/18 00:33:56;;;;;;;;;;;;;;;;;;349963;28;916;-62
2022/07/18 00:34:06;;;;;;;;;;;;;;;;;;349945;28;818;-63
2022/07/18 00:34:16;;;;;;;;;;;;;;;;;;349854;28;1374;-63
2022/07/18 00:34:27;;;;;;;;;;;;;;;;;;350607;28;1655;-62
2022/07/18 00:34:37;;;;;;;;;;;;;;;;;;351337;28;924;-63
2022/07/18 00:34:47;;;;;;;;;;;;;;;;;;351360;28;988;-63
2022/07/18 00:34:57;;;;;;;;;;;;;;;;;;351321;28;1008;-62
2022/07/18 00:35:08;;;;;;;;;;;;;;;;;;351234;28;849;-63
2022/07/18 00:35:18;;;;;;;;;;;;;;;;;;351178;28;979;-63
2022/07/18 00:35:28;;;;;;;;;;;;;;;;;;351222;28;991;-63
2022/07/18 00:35:39;;;;;;;;;;;;;;;;;;351238;28;917;-63
2022/07/18 00:35:49;;;;;;;;;;;;;;;;;;351269;28;968;-63
2022/07/18 00:35:59;;;;;;;;;;;;;;;;;;351147;28;928;-63
2022/07/18 00:36:09;;;;;;;;;;;;;;;;;;351257;28;995;-62
2022/07/18 00:36:20;;;;;;;;;;;;;;;;;;351266;28;786;-62
2022/07/18 00:36:30;;;;;;;;;;;;;;;;;;351231;28;1012;-63
2022/07/18 00:36:40;;;;;;;;;;;;;;;;;;351290;28;785;-62
2022/07/18 00:36:51;;;;;;;;;;;;;;;;;;351161;28;1020;-63
2022/07/18 00:37:01;;;;;;;;;;;;;;;;;;351280;28;917;-62
2022/07/18 00:37:11;;;;;;;;;;;;;;;;;;351362;28;917;-62
2022/07/18 00:37:22;;;;;;;;;;;;;;;;;;350320;28;1975;-63
2022/07/18 00:37:32;;;;;;;;;;;;;;;;;;352130;28;1000;-63
2022/07/18 00:37:42;;;;;;;;;;;;;;;;;;352756;28;925;-63
2022/07/18 00:37:52;;;;;;;;;;;;;;;;;;352723;28;1074;-62
2022/07/18 00:38:03;;;;;;;;;;;;;;;;;;352796;28;861;-62
2022/07/18 00:38:13;;;;;;;;;;;;;;;;;;352726;28;924;-62
2022/07/18 00:38:24;;;;;;;;;;;;;;;;;;352700;28;976;-63
2022/07/18 00:38:34;;;;;;;;;;;;;;;;;;352780;28;830;-62
2022/07/18 00:38:44;;;;;;;;;;;;;;;;;;352742;28;932;-63
2022/07/18 00:38:55;;;;;;;;;;;;;;;;;;352750;28;1003;-62
2022/07/18 00:39:05;;;;;;;;;;;;;;;;;;352674;28;970;-62
2022/07/18 00:39:15;;;;;;;;;;;;;;;;;;352756;28;928;-62
2022/07/18 00:39:26;;;;;;;;;;;;;;;;;;352751;28;995;-63
2022/07/18 00:39:36;;;;;;;;;;;;;;;;;;352774;28;778;-63
2022/07/18 00:39:46;;;;;;;;;;;;;;;;;;352713;28;948;-63
2022/07/18 00:39:56;;;;;;;;;;;;;;;;;;352776;28;797;-62
2022/07/18 00:40:07;;;;;;;;;;;;;;;;;;352771;28;932;-62
2022/07/18 00:40:17;;;;;;;;;;;;;;;;;;352698;28;1002;-63
2022/07/18 00:40:28;;;;;;;;;;;;;;;;;;352739;28;873;-63
2022/07/18 00:40:38;;;;;;;;;;;;;;;;;;352749;28;1007;-62
2022/07/18 00:40:49;;;;;;;;;;;;;;;;;;352738;28;1015;-63
2022/07/18 00:40:59;;;;;;;;;;;;;;;;;;352796;28;845;-63
2022/07/18 00:41:09;;;;;;;;;;;;;;;;;;352745;28;931;-63
2022/07/18 00:41:19;;;;;;;;;;;;;;;;;;352750;28;928;-63
2022/07/18 00:41:29;;;;;;;;;;;;;;;;;;352758;28;915;-63
2022/07/18 00:41:44;;;;;;;;;;;;;;;;;;352760;28;896;-63
2022/07/18 00:41:54;;;;;;;;;;;;;;;;;;352720;28;1006;-63
2022/07/18 00:42:05;;;;;;;;;;;;;;;;;;352755;28;817;-62
2022/07/18 00:42:15;;;;;;;;;;;;;;;;;;352725;28;912;-63
2022/07/18 00:42:25;;;;;;;;;;;;;;;;;;352762;28;778;-63
2022/07/18 00:42:35;;;;;;;;;;;;;;;;;;352732;28;920;-63
2022/07/18 00:42:46;;;;;;;;;;;;;;;;;;352747;28;936;-63
2022/07/18 00:42:56;;;;;;;;;;;;;;;;;;352771;28;932;-62
2022/07/18 00:43:06;;;;;;;;;;;;;;;;;;352701;28;1006;-63
2022/07/18 00:43:16;;;;;;;;;;;;;;;;;;352751;28;968;-63
2022/07/18 00:43:27;;;;;;;;;;;;;;;;;;352726;28;853;-63
2022/07/18 00:43:37;;;;;;;;;;;;;;;;;;352713;28;871;-63
2022/07/18 00:43:47;;;;;;;;;;;;;;;;;;352780;28;888;-62
2022/07/18 00:43:57;;;;;;;;;;;;;;;;;;352764;28;991;-62
2022/07/18 00:44:15;;;;;;;;;;;;;;;;;;352683;28;1016;-63
2022/07/18 00:44:27;;;;;;;;;;;;;;;;;;352757;28;1031;-63
2022/07/18 00:44:37;;;;;;;;;;;;;;;;;;352723;28;914;-62
2022/07/18 00:44:52;;;;;;;;;;;;;;;;;;352768;28;885;-62
2022/07/18 00:45:03;;;;;;;;;;;;;;;;;;352715;28;1160;-62
2022/07/18 00:45:13;;;;;;;;;;;;;;;;;;352752;28;944;-62
2022/07/18 00:45:23;;;;;;;;;;;;;;;;;;352717;28;952;-63
2022/07/18 00:45:33;;;;;;;;;;;;;;;;;;352742;28;963;-63
2022/07/18 00:45:45;;;;;;;;;;;;;;;;;;352769;28;960;-63
2022/07/18 00:45:55;;;;;;;;;;;;;;;;;;350654;28;1416;-62
2022/07/18 00:46:05;;;;;;;;;;;;;;;;;;351340;28;968;-62
2022/07/18 00:46:19;;;;;;;;;;;;;;;;;;351329;28;967;-62
2022/07/18 00:46:30;;;;;;;;;;;;;;;;;;351270;28;1019;-62
2022/07/18 00:46:40;;;;;;;;;;;;;;;;;;351318;28;1720;-63
2022/07/18 00:46:54;;;;;;;;;;;;;;;;;;351318;28;904;-62
2022/07/18 00:47:04;;;;;;;;;;;;;;;;;;351326;27;952;-62
2022/07/18 00:47:14;;;;;;;;;;;;;;;;;;351322;28;1035;-63
2022/07/18 00:47:25;;;;;;;;;;;;;;;;;;351367;28;908;-62
2022/07/18 00:47:35;;;;;;;;;;;;;;;;;;351251;28;992;-63
2022/07/18 00:47:45;;;;;;;;;;;;;;;;;;351366;28;940;-62
2022/07/18 00:47:55;;;;;;;;;;;;;;;;;;351368;28;928;-62
2022/07/18 00:48:06;;;;;;;;;;;;;;;;;;351374;28;908;-63
2022/07/18 00:48:16;;;;;;;;;;;;;;;;;;351348;28;848;-62
2022/07/18 00:48:26;;;;;;;;;;;;;;;;;;351309;28;964;-63
2022/07/18 00:48:40;;;;;;;;;;;;;;;;;;351283;28;877;-62
2022/07/18 00:48:51;;;;;;;;;;;;;;;;;;351336;28;948;-63
2022/07/18 00:49:01;;;;;;;;;;;;;;;;;;351340;28;914;-63
2022/07/18 00:49:11;;;;;;;;;;;;;;;;;;351379;28;860;-62
2022/07/18 00:49:22;;;;;;;;;;;;;;;;;;351381;28;1013;-62
2022/07/18 00:49:32;;;;;;;;;;;;;;;;;;351388;28;975;-62
2022/07/18 00:49:42;;;;;;;;;;;;;;;;;;351326;28;939;-62
2022/07/18 00:49:52;;;;;;;;;;;;;;;;;;351341;28;907;-63
2022/07/18 00:50:05;;;;;;;;;;;;;;;;;;351317;28;967;-62
2022/07/18 00:50:15;;;;;;;;;;;;;;;;;;351372;28;951;-62
2022/07/18 00:50:26;;;;;;;;;;;;;;;;;;351337;28;861;-62
2022/07/18 00:50:36;;;;;;;;;;;;;;;;;;351259;28;947;-62
2022/07/18 00:50:47;;;;;;;;;;;;;;;;;;351272;28;983;-63
2022/07/18 00:50:57;;;;;;;;;;;;;;;;;;351319;28;785;-63
2022/07/18 00:51:07;;;;;;;;;;;;;;;;;;351366;28;904;-62
2022/07/18 00:51:18;;;;;;;;;;;;;;;;;;351361;28;896;-63
2022/07/18 00:51:28;;;;;;;;;;;;;;;;;;351319;28;932;-62
2022/07/18 00:51:39;;;;;;;;;;;;;;;;;;351317;28;908;-62
2022/07/18 00:51:49;;;;;;;;;;;;;;;;;;351279;28;943;-62
2022/07/18 00:51:59;;;;;;;;;;;;;;;;;;351315;28;834;-62
2022/07/18 00:52:09;;;;;;;;;;;;;;;;;;351328;28;951;-63
2022/07/18 00:52:20;;;;;;;;;;;;;;;;;;351392;28;982;-62
2022/07/18 00:52:30;;;;;;;;;;;;;;;;;;351374;28;899;-62
2022/07/18 00:52:40;;;;;;;;;;;;;;;;;;351239;28;983;-62
2022/07/18 00:52:51;;;;;;;;;;;;;;;;;;351262;28;1897;-63
2022/07/18 00:53:01;;;;;;;;;;;;;;;;;;350692;28;1325;-62
2022/07/18 00:53:11;;;;;;;;;;;;;;;;;;351354;28;990;-63
2022/07/18 00:53:23;;;;;;;;;;;;;;;;;;351333;28;1002;-63
2022/07/18 00:53:34;;;;;;;;;;;;;;;;;;351334;28;971;-63
2022/07/18 00:53:44;;;;;;;;;;;;;;;;;;351334;28;920;-62
2022/07/18 00:53:55;;;;;;;;;;;;;;;;;;351391;28;758;-63
2022/07/18 00:54:05;;;;;;;;;;;;;;;;;;351310;28;927;-62
2022/07/18 00:54:16;;;;;;;;;;;;;;;;;;351347;28;924;-63
2022/07/18 00:54:27;;;;;;;;;;;;;;;;;;351352;28;940;-62
2022/07/18 00:54:38;;;;;;;;;;;;;;;;;;351337;28;1011;-63
2022/07/18 00:54:48;;;;;;;;;;;;;;;;;;351262;27;856;-63
2022/07/18 00:54:59;;;;;;;;;;;;;;;;;;351290;28;742;-62
2022/07/18 00:55:09;;;;;;;;;;;;;;;;;;351351;27;1015;-62
2022/07/18 00:55:19;;;;;;;;;;;;;;;;;;351322;28;971;-62
2022/07/18 00:55:29;;;;;;;;;;;;;;;;;;351325;28;876;-63
2022/07/18 00:55:41;;;;;;;;;;;;;;;;;;351341;28;951;-62
2022/07/18 00:55:51;;;;;;;;;;;;;;;;;;351386;28;1090;-63
2022/07/18 00:56:03;;;;;;;;;;;;;;;;;;351355;28;826;-62
2022/07/18 00:56:16;;;;;;;;;;;;;;;;;;351293;28;1007;-63
2022/07/18 00:56:26;;;;;;;;;;;;;;;;;;351388;28;773;-63
2022/07/18 00:56:36;;;;;;;;;;;;;;;;;;351305;28;984;-63
2022/07/18 00:56:48;;;;;;;;;;;;;;;;;;351343;28;1003;-62
2022/07/18 00:56:59;;;;;;;;;;;;;;;;;;351313;28;919;-62
2022/07/18 00:57:09;;;;;;;;;;;;;;;;;;351354;28;817;-62
2022/07/18 00:57:20;;;;;;;;;;;;;;;;;;351350;28;911;-63
2022/07/18 00:57:30;;;;;;;;;;;;;;;;;;351360;28;865;-63
2022/07/18 00:57:41;;;;;;;;;;;;;;;;;;351321;28;860;-62
2022/07/18 00:57:51;;;;;;;;;;;;;;;;;;351265;28;1074;-63
2022/07/18 00:58:01;;;;;;;;;;;;;;;;;;351341;28;1003;-62
2022/07/18 00:58:12;;;;;;;;;;;;;;;;;;351382;28;836;-62
2022/07/18 00:58:22;;;;;;;;;;;;;;;;;;351313;28;1010;-63
2022/07/18 00:58:32;;;;;;;;;;;;;;;;;;351349;28;849;-63
2022/07/18 00:58:43;;;;;;;;;;;;;;;;;;351369;28;880;-62
2022/07/18 00:58:54;;;;;;;;;;;;;;;;;;351308;28;932;-62
2022/07/18 00:59:04;;;;;;;;;;;;;;;;;;351271;28;1015;-63
2022/07/18 00:59:14;;;;;;;;;;;;;;;;;;351382;28;972;-62
2022/07/18 01:01:42;;;;;;;;;;;;;;;;;;351342;28;936;-62
2022/07/18 01:01:50;;;;;;;;;;;;;;;;;;351267;28;1046;-62
2022/07/18 01:02:01;;;;;;;;;;;;;;;;;;351331;28;809;-63
2022/07/18 01:02:11;;;;;;;;;;;;;;;;;;351334;28;982;-62
2022/07/18 01:02:21;;;;;;;;;;;;;;;;;;351344;27;947;-63
2022/07/18 01:02:31;;;;;;;;;;;;;;;;;;351328;28;932;-63
2022/07/18 01:02:42;;;;;;;;;;;;;;;;;;351295;28;928;-63
2022/07/18 01:02:52;;;;;;;;;;;;;;;;;;351304;28;968;-62
2022/07/18 01:03:02;;;;;;;;;;;;;;;;;;351373;28;821;-62
2022/07/18 01:03:12;;;;;;;;;;;;;;;;;;351301;28;928;-62
2022/07/18 01:03:23;;;;;;;;;;;;;;;;;;351312;28;1090;-63
2022/07/18 01:03:33;;;;;;;;;;;;;;;;;;351288;28;928;-63
2022/07/18 01:03:43;;;;;;;;;;;;;;;;;;351345;28;998;-63
2022/07/18 01:03:54;;;;;;;;;;;;;;;;;;351304;28;932;-62
2022/07/18 01:04:04;;;;;;;;;;;;;;;;;;351339;28;860;-62
2022/07/18 01:04:22;;;;;;;;;;;;;;;;;;351313;28;1008;-62
2022/07/18 01:04:32;;;;;;;;;;;;;;;;;;351278;28;948;-63
2022/07/18 01:04:43;;;;;;;;;;;;;;;;;;351344;28;915;-63
2022/07/18 01:04:53;;;;;;;;;;;;;;;;;;351274;28;880;-63
2022/07/18 01:05:04;;;;;;;;;;;;;;;;;;351349;28;939;-63
2022/07/18 01:05:14;;;;;;;;;;;;;;;;;;351234;28;971;-62
2022/07/18 01:05:24;;;;;;;;;;;;;;;;;;351289;28;994;-62
2022/07/18 01:05:34;;;;;;;;;;;;;;;;;;351337;28;912;-62
2022/07/18 01:05:44;;;;;;;;;;;;;;;;;;351338;28;983;-62
2022/07/18 01:05:55;;;;;;;;;;;;;;;;;;351312;28;865;-63
2022/07/18 01:06:05;;;;;;;;;;;;;;;;;;351294;27;999;-62
2022/07/18 01:06:15;;;;;;;;;;;;;;;;;;351338;28;852;-62
2022/07/18 01:06:25;;;;;;;;;;;;;;;;;;350759;28;1367;-63
2022/07/18 01:06:36;;;;;;;;;;;;;;;;;;350532;28;1352;-62
2022/07/18 01:06:47;;;;;;;;;;;;;;;;;;349972;28;928;-62
2022/07/18 01:06:57;;;;;;;;;;;;;;;;;;349881;28;960;-63
2022/07/18 01:07:07;;;;;;;;;;;;;;;;;;349959;28;794;-63
2022/07/18 01:07:18;;;;;;;;;;;;;;;;;;349905;28;881;-63
2022/07/18 01:07:28;;;;;;;;;;;;;;;;;;349488;28;1971;-63
2022/07/18 01:07:38;;;;;;;;;;;;;;;;;;352118;28;1588;-63
2022/07/18 01:07:49;;;;;;;;;;;;;;;;;;352686;28;928;-62
2022/07/18 01:07:59;;;;;;;;;;;;;;;;;;352084;28;1330;-63
2022/07/18 01:08:09;;;;;;;;;;;;;;;;;;351308;28;932;-62
2022/07/18 01:08:20;;;;;;;;;;;;;;;;;;351313;28;785;-63
2022/07/18 01:08:30;;;;;;;;;;;;;;;;;;351362;28;1089;-63
2022/07/18 01:08:42;;;;;;;;;;;;;;;;;;351385;28;801;-62
2022/07/18 01:08:52;;;;;;;;;;;;;;;;;;351249;28;1305;-62
2022/07/18 01:09:02;;;;;;;;;;;;;;;;;;351349;28;916;-63
2022/07/18 01:09:13;;;;;;;;;;;;;;;;;;351306;28;837;-63
2022/07/18 01:09:23;;;;;;;;;;;;;;;;;;351309;28;983;-62
2022/07/18 01:09:33;;;;;;;;;;;;;;;;;;351354;27;936;-62
2022/07/18 01:09:44;;;;;;;;;;;;;;;;;;351375;28;982;-62
2022/07/18 01:09:54;;;;;;;;;;;;;;;;;;351333;28;821;-63
2022/07/18 01:10:05;;;;;;;;;;;;;;;;;;351334;28;984;-62
2022/07/18 01:10:15;;;;;;;;;;;;;;;;;;351421;28;948;-63
2022/07/18 01:10:25;;;;;;;;;;;;;;;;;;351293;28;968;-63
2022/07/18 01:10:36;;;;;;;;;;;;;;;;;;351325;28;928;-62
2022/07/18 01:10:46;;;;;;;;;;;;;;;;;;351398;28;951;-62
2022/07/18 01:10:56;;;;;;;;;;;;;;;;;;351315;28;944;-63
2022/07/18 01:11:06;;;;;;;;;;;;;;;;;;351330;28;964;-62
2022/07/18 01:11:17;;;;;;;;;;;;;;;;;;351344;27;936;-63
2022/07/18 01:11:27;;;;;;;;;;;;;;;;;;351258;28;916;-63
2022/07/18 01:11:37;;;;;;;;;;;;;;;;;;351336;28;916;-62
2022/07/18 01:11:47;;;;;;;;;;;;;;;;;;351342;28;912;-62
2022/07/18 01:11:58;;;;;;;;;;;;;;;;;;351299;28;865;-63
2022/07/18 01:12:08;;;;;;;;;;;;;;;;;;351295;28;880;-63
2022/07/18 01:12:19;;;;;;;;;;;;;;;;;;351412;28;900;-62
2022/07/18 01:12:29;;;;;;;;;;;;;;;;;;351313;28;1028;-63
2022/07/18 01:12:39;;;;;;;;;;;;;;;;;;351389;28;928;-62
2022/07/18 01:12:49;;;;;;;;;;;;;;;;;;351241;28;1974;-63
2022/07/18 01:13:00;;;;;;;;;;;;;;;;;;351332;27;912;-62
2022/07/18 01:13:10;;;;;;;;;;;;;;;;;;351306;28;967;-62
2022/07/18 01:13:21;;;;;;;;;;;;;;;;;;351319;28;1022;-63
2022/07/18 01:13:31;;;;;;;;;;;;;;;;;;351274;28;912;-62
2022/07/18 01:13:41;;;;;;;;;;;;;;;;;;351362;28;833;-62
2022/07/18 01:13:51;;;;;;;;;;;;;;;;;;351366;28;904;-62
2022/07/18 01:14:03;;;;;;;;;;;;;;;;;;351338;28;999;-63
2022/07/18 01:14:13;;;;;;;;;;;;;;;;;;351279;28;808;-62
2022/07/18 01:14:24;;;;;;;;;;;;;;;;;;351267;28;1064;-63
2022/07/18 01:14:35;;;;;;;;;;;;;;;;;;351347;28;770;-62
2022/07/18 01:14:45;;;;;;;;;;;;;;;;;;351357;28;936;-62
2022/07/18 01:14:57;;;;;;;;;;;;;;;;;;351321;28;959;-62
2022/07/18 01:15:08;;;;;;;;;;;;;;;;;;351271;28;975;-63
2022/07/18 01:15:18;;;;;;;;;;;;;;;;;;351315;28;1004;-62
2022/07/18 01:15:28;;;;;;;;;;;;;;;;;;351414;28;861;-62
2022/07/18 01:15:38;;;;;;;;;;;;;;;;;;351294;28;924;-63
2022/07/18 01:15:48;;;;;;;;;;;;;;;;;;351325;28;908;-63
2022/07/18 01:15:59;;;;;;;;;;;;;;;;;;351304;28;809;-62
2022/07/18 01:16:09;;;;;;;;;;;;;;;;;;351320;28;916;-62
2022/07/18 01:16:19;;;;;;;;;;;;;;;;;;351380;28;832;-62
2022/07/18 01:16:29;;;;;;;;;;;;;;;;;;351321;27;920;-63
2022/07/18 01:16:40;;;;;;;;;;;;;;;;;;351376;28;856;-62
2022/07/18 01:16:50;;;;;;;;;;;;;;;;;;351296;28;967;-62
2022/07/18 01:17:00;;;;;;;;;;;;;;;;;;351327;28;936;-63
2022/07/18 01:17:11;;;;;;;;;;;;;;;;;;351296;28;919;-62